Time;durP1;ratioP1;P1;durP2;ratioP2;P2;SDS_P1;SDS_P2;PMS_P1;PMS_P2;Temp;Humidity;BMP_temperature;BMP_pressure;BME280_temperature;BME280_humidity;BME280_pressure;Samples;Min_cycle;Max_cycle;Signal;HPM_P1;HPM_P2
2023/09/19 00:01:44;;;;;;;3.40;1.50;;;15.00;99.90;;;;;;5047713;28;20386;-40
2023/09/19 00:04:09;;;;;;;3.08;1.60;;;15.00;99.90;;;;;;5043825;28;20087;-38
2023/09/19 00:06:36;;;;;;;1.63;1.20;;;15.10;99.90;;;;;;5049803;28;20036;-39
2023/09/19 00:09:03;;;;;;;3.08;1.30;;;15.10;99.90;;;;;;5048297;28;20036;-39
2023/09/19 00:11:28;;;;;;;3.65;1.20;;;15.10;99.90;;;;;;5050747;28;20119;-39
2023/09/19 00:13:54;;;;;;;1.52;1.25;;;15.10;99.90;;;;;;5045786;28;20104;-38
2023/09/19 00:16:20;;;;;;;3.10;1.58;;;15.10;99.90;;;;;;5051068;28;20024;-39
2023/09/19 00:18:46;;;;;;;1.35;1.20;;;15.10;99.90;;;;;;5050064;28;20083;-39
2023/09/19 00:21:12;;;;;;;1.42;1.27;;;15.10;99.90;;;;;;5048325;28;20483;-40
2023/09/19 00:23:38;;;;;;;1.50;1.40;;;15.10;99.90;;;;;;5049909;28;20075;-39
2023/09/19 00:26:04;;;;;;;1.50;1.40;;;15.10;99.90;;;;;;5051044;28;20033;-39
2023/09/19 00:28:31;;;;;;;2.10;1.33;;;15.10;99.90;;;;;;5049498;28;20032;-38
2023/09/19 00:30:57;;;;;;;1.55;1.20;;;15.10;99.90;;;;;;5050704;28;20041;-37
2023/09/19 00:33:22;;;;;;;3.08;1.20;;;15.10;99.90;;;;;;5048107;28;20061;-30
2023/09/19 00:35:53;;;;;;;1.98;1.40;;;15.10;99.90;;;;;;5050900;28;20051;-41
2023/09/19 00:38:22;;;;;;;1.20;1.10;;;15.10;99.90;;;;;;5051182;28;20025;-41
2023/09/19 00:40:48;;;;;;;1.65;1.25;;;15.10;99.90;;;;;;5050279;28;20021;-39
2023/09/19 00:43:14;;;;;;;2.88;1.65;;;15.10;99.90;;;;;;5045519;28;20021;-40
2023/09/19 00:45:48;;;;;;;1.13;1.02;;;15.10;99.90;;;;;;5049859;28;20028;-41
2023/09/19 00:48:15;;;;;;;1.52;1.42;;;15.10;99.90;;;;;;5046738;28;20075;-41
2023/09/19 00:50:43;;;;;;;1.75;1.20;;;15.10;99.90;;;;;;5065325;28;20056;-41
2023/09/19 00:53:13;;;;;;;1.40;1.17;;;15.10;99.90;;;;;;5046299;28;20490;-38
2023/09/19 00:55:40;;;;;;;1.25;1.15;;;15.10;99.90;;;;;;5051421;28;20021;-41
2023/09/19 00:58:10;;;;;;;3.28;1.40;;;15.10;99.90;;;;;;5043973;28;20083;-40
2023/09/19 01:00:35;;;;;;;3.35;1.40;;;15.10;99.90;;;;;;5045966;28;20029;-40
2023/09/19 01:03:01;;;;;;;3.72;1.40;;;15.20;99.90;;;;;;5048024;28;20090;-41
2023/09/19 01:05:28;;;;;;;4.40;1.55;;;15.20;99.90;;;;;;5047887;28;20021;-41
2023/09/19 01:07:53;;;;;;;3.58;1.70;;;15.20;99.90;;;;;;5052293;28;20028;-37
2023/09/19 01:10:20;;;;;;;1.77;1.30;;;15.30;99.90;;;;;;5046751;28;20037;-41
2023/09/19 01:13:05;;;;;;;2.70;1.80;;;15.30;99.90;;;;;;5048704;28;20390;-40
2023/09/19 01:15:54;;;;;;;2.97;1.60;;;15.30;99.90;;;;;;5052098;28;20307;-30
2023/09/19 01:18:23;;;;;;;1.38;1.27;;;15.20;99.90;;;;;;5044676;28;20025;-30
2023/09/19 01:21:04;;;;;;;3.10;1.63;;;15.10;99.90;;;;;;5042847;28;20021;-32
2023/09/19 01:23:51;;;;;;;2.05;1.38;;;15.20;99.90;;;;;;5044818;28;20026;-31
2023/09/19 01:26:35;;;;;;;3.03;1.50;;;15.20;99.90;;;;;;5047979;28;20039;-30
2023/09/19 01:29:29;;;;;;;2.63;1.55;;;15.10;99.90;;;;;;5047539;28;20490;-33
2023/09/19 01:32:02;;;;;;;3.80;1.60;;;15.20;99.90;;;;;;5044419;28;20513;-32
2023/09/19 01:34:56;;;;;;;3.33;1.40;;;15.10;99.90;;;;;;5048776;28;20051;-30
2023/09/19 01:37:25;;;;;;;2.28;1.55;;;15.10;99.90;;;;;;5046328;28;20036;-30
2023/09/19 01:39:56;;;;;;;1.67;1.58;;;15.10;99.90;;;;;;5045684;28;20025;-30
2023/09/19 01:42:33;;;;;;;2.50;1.70;;;15.10;99.90;;;;;;5049825;28;20025;-29
2023/09/19 01:45:07;;;;;;;1.70;1.60;;;15.10;99.90;;;;;;5046719;28;20057;-37
2023/09/19 01:47:38;;;;;;;2.47;1.48;;;15.10;99.90;;;;;;5047223;28;20237;-40
2023/09/19 01:50:36;;;;;;;2.05;1.55;;;15.00;99.90;;;;;;5048111;28;20036;-40
2023/09/19 01:53:10;;;;;;;2.75;1.50;;;15.00;99.90;;;;;;5027028;28;20032;-40
2023/09/19 01:55:43;;;;;;;1.75;1.50;;;15.00;99.90;;;;;;5047379;28;20052;-38
2023/09/19 01:58:22;;;;;;;2.33;1.35;;;15.00;99.90;;;;;;5046027;28;20060;-35
2023/09/19 02:00:51;;;;;;;2.70;1.40;;;15.10;99.90;;;;;;5046717;28;20044;-38
2023/09/19 02:03:18;;;;;;;2.42;1.50;;;15.00;99.90;;;;;;5044641;28;20033;-39
2023/09/19 02:05:51;;;;;;;2.50;1.50;;;15.00;99.90;;;;;;5049189;28;20021;-40
2023/09/19 02:08:24;;;;;;;1.80;1.30;;;15.00;99.90;;;;;;5046300;28;20029;-39
2023/09/19 02:10:50;;;;;;;2.17;1.50;;;15.00;99.90;;;;;;5045829;28;20021;-38
2023/09/19 02:13:20;;;;;;;1.58;1.48;;;15.00;99.90;;;;;;5046086;28;20682;-38
2023/09/19 02:15:46;;;;;;;2.15;1.83;;;15.00;99.90;;;;;;5047024;28;20068;-36
2023/09/19 02:18:13;;;;;;;2.38;1.80;;;14.90;99.90;;;;;;5046661;28;20064;-39
2023/09/19 02:20:39;;;;;;;2.25;2.05;;;15.00;99.90;;;;;;5045527;28;20022;-39
2023/09/19 02:23:05;;;;;;;4.20;1.48;;;14.90;99.90;;;;;;5049040;28;20029;-39
2023/09/19 02:25:32;;;;;;;4.03;1.77;;;15.00;99.90;;;;;;5047882;28;20075;-34
2023/09/19 02:27:58;;;;;;;3.30;1.77;;;15.00;99.90;;;;;;5041128;28;20479;-36
2023/09/19 02:30:25;;;;;;;1.92;1.77;;;15.00;99.90;;;;;;5045475;28;20037;-32
2023/09/19 02:32:51;;;;;;;1.95;1.77;;;15.00;99.90;;;;;;5029011;28;20052;-32
2023/09/19 02:35:19;;;;;;;3.10;1.77;;;15.00;99.90;;;;;;5027362;28;20391;-34
2023/09/19 02:37:46;;;;;;;3.72;1.77;;;15.00;99.90;;;;;;5027524;28;20041;-36
2023/09/19 02:40:25;;;;;;;1.73;1.63;;;15.00;99.90;;;;;;5024397;28;20030;-33
2023/09/19 02:42:54;;;;;;;4.65;1.60;;;15.00;99.90;;;;;;5027761;28;20041;-33
2023/09/19 02:45:21;;;;;;;2.40;1.70;;;15.00;99.90;;;;;;5025787;28;20057;-32
2023/09/19 02:47:47;;;;;;;3.70;1.88;;;15.00;99.90;;;;;;5020935;28;20065;-32
2023/09/19 02:50:15;;;;;;;3.47;1.60;;;15.00;99.90;;;;;;5027350;28;20386;-35
2023/09/19 02:52:44;;;;;;;;;;;15.10;99.90;;;;;;5027537;28;20073;-32
2023/09/19 02:55:17;;;;;;;1.85;1.73;;;15.00;99.90;;;;;;5023808;28;20358;-29
2023/09/19 02:57:56;;;;;;;3.13;1.60;;;15.10;99.90;;;;;;5029310;28;20029;-29
2023/09/19 03:00:23;;;;;;;2.45;1.70;;;15.10;99.90;;;;;;5020115;28;20034;-30
2023/09/19 03:02:52;;;;;;;1.60;1.50;;;15.10;99.90;;;;;;5049300;28;20032;-31
2023/09/19 03:05:19;;;;;;;4.70;1.67;;;15.10;99.90;;;;;;5049470;28;20033;-30
2023/09/19 03:07:46;;;;;;;1.65;1.45;;;15.10;99.90;;;;;;5048714;28;20399;-30
2023/09/19 03:10:14;;;;;;;2.00;1.30;;;15.10;99.90;;;;;;5043706;28;20717;-30
2023/09/19 03:12:40;;;;;;;2.47;1.38;;;15.10;99.90;;;;;;5053057;28;20510;-29
2023/09/19 03:15:08;;;;;;;2.10;1.55;;;15.10;99.90;;;;;;5043086;28;20033;-31
2023/09/19 03:17:34;;;;;;;2.22;1.50;;;15.10;99.90;;;;;;5051311;28;20506;-29
2023/09/19 03:19:59;;;;;;;1.83;1.30;;;15.10;99.90;;;;;;5051277;28;20033;-30
2023/09/19 03:22:27;;;;;;;2.33;1.30;;;15.10;99.90;;;;;;5049005;28;20041;-30
2023/09/19 03:24:53;;;;;;;1.30;1.20;;;15.10;99.90;;;;;;5050042;28;20032;-30
2023/09/19 03:27:20;;;;;;;1.65;1.48;;;15.10;99.90;;;;;;5048062;28;20090;-29
2023/09/19 03:29:47;;;;;;;1.63;1.43;;;15.10;99.90;;;;;;5048306;28;20441;-29
2023/09/19 03:32:13;;;;;;;2.03;1.30;;;15.20;99.90;;;;;;5047980;28;20033;-30
2023/09/19 03:34:43;;;;;;;2.30;1.35;;;15.20;99.90;;;;;;5052840;28;20159;-29
2023/09/19 03:37:11;;;;;;;1.40;1.30;;;15.20;99.90;;;;;;5045206;28;20026;-31
2023/09/19 03:39:37;;;;;;;2.78;1.73;;;15.20;99.90;;;;;;5048769;28;20021;-30
2023/09/19 03:42:07;;;;;;;1.50;1.23;;;15.20;99.90;;;;;;5048737;28;20102;-30
2023/09/19 03:44:33;;;;;;;1.58;1.27;;;15.20;99.90;;;;;;5052702;28;20044;-29
2023/09/19 03:46:59;;;;;;;1.80;1.30;;;15.20;99.90;;;;;;5048707;28;20029;-34
2023/09/19 03:49:24;;;;;;;2.30;1.40;;;15.30;99.90;;;;;;5051981;28;20062;-31
2023/09/19 03:51:51;;;;;;;1.70;1.50;;;15.30;99.90;;;;;;5047307;28;20035;-31
2023/09/19 03:54:19;;;;;;;1.65;1.50;;;15.30;99.90;;;;;;5049115;28;20436;-30
2023/09/19 03:56:45;;;;;;;2.20;1.60;;;15.30;99.90;;;;;;5051035;28;20051;-30
2023/09/19 03:59:11;;;;;;;2.65;1.05;;;15.30;99.90;;;;;;5047520;28;20405;-30
2023/09/19 04:01:37;;;;;;;1.90;1.30;;;15.30;99.90;;;;;;5050508;28;20067;-30
2023/09/19 04:04:09;;;;;;;3.00;1.67;;;15.30;99.90;;;;;;5051353;28;20489;-37
2023/09/19 04:06:35;;;;;;;1.70;1.60;;;15.30;99.90;;;;;;5047999;28;20120;-39
2023/09/19 04:09:03;;;;;;;1.70;1.17;;;15.30;99.90;;;;;;5047680;28;20120;-38
2023/09/19 04:11:29;;;;;;;2.50;1.40;;;15.30;99.90;;;;;;5050213;28;20087;-38
2023/09/19 04:13:54;;;;;;;2.85;1.55;;;15.30;99.90;;;;;;5050506;28;20029;-37
2023/09/19 04:16:20;;;;;;;1.45;1.30;;;15.40;99.90;;;;;;5050329;28;20039;-39
2023/09/19 04:18:46;;;;;;;1.77;1.40;;;15.40;99.90;;;;;;5051241;28;20028;-37
2023/09/19 04:21:11;;;;;;;2.05;1.42;;;15.40;99.90;;;;;;5046405;28;20044;-39
2023/09/19 04:23:37;;;;;;;2.20;1.30;;;15.40;99.90;;;;;;5049507;28;20062;-40
2023/09/19 04:26:06;;;;;;;1.50;1.30;;;15.40;99.90;;;;;;5045184;28;20039;-40
2023/09/19 04:28:34;;;;;;;1.88;1.55;;;15.40;99.90;;;;;;5043435;28;20364;-37
2023/09/19 04:30:59;;;;;;;1.80;1.35;;;15.30;99.90;;;;;;5047161;28;20538;-37
2023/09/19 04:33:27;;;;;;;4.30;1.67;;;15.40;99.90;;;;;;5050045;28;20148;-40
2023/09/19 04:35:52;;;;;;;1.55;1.30;;;15.40;99.90;;;;;;5053453;28;20029;-39
2023/09/19 04:38:19;;;;;;;2.90;1.50;;;15.30;99.90;;;;;;5044494;28;20025;-40
2023/09/19 04:40:45;;;;;;;2.35;1.30;;;15.30;99.90;;;;;;5045773;28;20040;-40
2023/09/19 04:43:11;;;;;;;3.00;1.52;;;15.30;99.90;;;;;;5048330;28;20474;-39
2023/09/19 04:45:39;;;;;;;2.28;1.60;;;15.30;99.90;;;;;;5045917;28;20028;-38
2023/09/19 04:48:06;;;;;;;;;;;15.30;99.90;;;;;;5048087;28;20028;-41
2023/09/19 04:50:32;;;;;;;2.03;1.58;;;15.30;99.90;;;;;;5047790;28;20512;-39
2023/09/19 04:52:59;;;;;;;2.75;1.20;;;15.30;99.90;;;;;;5042706;28;20064;-38
2023/09/19 04:55:26;;;;;;;2.38;1.48;;;15.30;99.90;;;;;;5048812;28;21056;-39
2023/09/19 04:57:52;;;;;;;3.03;1.45;;;15.20;99.90;;;;;;5047990;28;20037;-39
2023/09/19 05:00:23;;;;;;;2.88;1.40;;;15.20;99.90;;;;;;5050146;28;20034;-33
2023/09/19 05:02:56;;;;;;;1.70;1.58;;;15.20;99.90;;;;;;5048767;28;20433;-41
2023/09/19 05:05:23;;;;;;;3.00;2.10;;;15.20;99.90;;;;;;5047922;28;20048;-41
2023/09/19 05:07:49;;;;;;;2.13;1.77;;;15.20;99.90;;;;;;5044722;28;20035;-41
2023/09/19 05:10:18;;;;;;;3.35;1.85;;;15.20;99.90;;;;;;5048116;28;20108;-41
2023/09/19 05:12:45;;;;;;;2.20;1.70;;;15.20;99.90;;;;;;5043575;28;20033;-41
2023/09/19 05:15:12;;;;;;;2.03;1.65;;;15.20;99.90;;;;;;5049938;28;20056;-29
2023/09/19 05:17:38;;;;;;;2.10;1.80;;;15.20;99.90;;;;;;5046193;28;20419;-30
2023/09/19 05:20:15;;;;;;;3.90;1.65;;;15.20;99.90;;;;;;5064271;28;20040;-30
2023/09/19 05:22:42;;;;;;;2.55;1.30;;;15.30;99.90;;;;;;5040072;28;20502;-33
2023/09/19 05:25:09;;;;;;;5.75;1.88;;;15.30;99.90;;;;;;5048340;28;20064;-34
2023/09/19 05:27:35;;;;;;;1.88;1.67;;;15.30;99.90;;;;;;5048894;28;20037;-30
2023/09/19 05:30:01;;;;;;;1.63;1.45;;;15.30;99.90;;;;;;5047104;28;20024;-31
2023/09/19 05:32:27;;;;;;;1.92;1.58;;;15.30;99.90;;;;;;5060297;28;20722;-30
2023/09/19 05:34:56;;;;;;;2.83;1.55;;;15.30;99.90;;;;;;5062283;28;20358;-30
2023/09/19 05:37:23;;;;;;;3.55;1.80;;;15.30;99.90;;;;;;5048206;28;20379;-32
2023/09/19 05:39:49;;;;;;;2.63;1.40;;;15.40;99.90;;;;;;5045624;28;20071;-34
2023/09/19 05:42:14;;;;;;;2.92;2.08;;;15.40;99.90;;;;;;5042437;28;20041;-29
2023/09/19 05:44:40;;;;;;;2.50;1.40;;;15.40;99.90;;;;;;5047610;28;20151;-30
2023/09/19 05:47:08;;;;;;;3.20;1.35;;;15.40;99.90;;;;;;5047883;28;20041;-30
2023/09/19 05:49:40;;;;;;;2.08;1.48;;;15.40;99.90;;;;;;5050839;28;20036;-30
2023/09/19 05:52:06;;;;;;;3.40;1.40;;;15.40;99.90;;;;;;5051848;28;20040;-37
2023/09/19 05:54:34;;;;;;;3.80;1.40;;;15.40;99.90;;;;;;5052442;28;20081;-31
2023/09/19 05:57:00;;;;;;;2.00;1.60;;;15.40;99.90;;;;;;5046699;28;20466;-33
2023/09/19 05:59:25;;;;;;;1.63;1.50;;;15.50;99.90;;;;;;5045866;28;20069;-33
2023/09/19 06:01:52;;;;;;;1.60;1.40;;;15.50;99.90;;;;;;5046070;28;20122;-33
2023/09/19 06:04:19;;;;;;;3.33;1.55;;;15.60;99.90;;;;;;5048274;28;20028;-32
2023/09/19 06:06:45;;;;;;;1.55;1.45;;;15.70;99.90;;;;;;5048068;28;20033;-32
2023/09/19 06:09:10;;;;;;;2.00;1.58;;;15.70;99.90;;;;;;5075598;28;20029;-32
2023/09/19 06:11:37;;;;;;;1.80;1.30;;;15.70;99.90;;;;;;5044211;28;20386;-32
2023/09/19 06:14:03;;;;;;;2.60;1.58;;;15.70;99.90;;;;;;5045247;28;20028;-33
2023/09/19 06:16:38;;;;;;;2.38;1.70;;;15.80;99.90;;;;;;5046207;28;20027;-34
2023/09/19 06:19:08;;;;;;;2.95;1.30;;;15.80;99.90;;;;;;5045008;28;20506;-31
2023/09/19 06:21:34;;;;;;;1.17;1.05;;;15.80;99.90;;;;;;5060439;28;20070;-33
2023/09/19 06:24:00;;;;;;;1.92;1.35;;;15.80;99.90;;;;;;5044313;28;20126;-39
2023/09/19 06:26:26;;;;;;;2.55;1.65;;;15.80;99.90;;;;;;5044643;28;20047;-38
2023/09/19 06:28:52;;;;;;;2.42;1.58;;;15.90;99.90;;;;;;5046861;28;20021;-40
2023/09/19 06:31:18;;;;;;;1.60;1.30;;;15.90;99.90;;;;;;5048007;28;20033;-39
2023/09/19 06:33:44;;;;;;;1.38;1.20;;;15.90;99.90;;;;;;5046289;28;20098;-37
2023/09/19 06:36:09;;;;;;;1.40;1.27;;;15.90;99.90;;;;;;5047800;28;20020;-39
2023/09/19 06:38:36;;;;;;;1.75;1.20;;;16.00;99.90;;;;;;5047398;28;20170;-39
2023/09/19 06:41:05;;;;;;;2.85;1.70;;;16.00;99.90;;;;;;5046663;28;20033;-40
2023/09/19 06:43:34;;;;;;;2.40;1.30;;;16.00;99.90;;;;;;5045236;28;20033;-40
2023/09/19 06:46:01;;;;;;;2.22;1.30;;;16.00;99.90;;;;;;5044605;28;20036;-38
2023/09/19 06:48:29;;;;;;;3.33;1.30;;;16.10;99.90;;;;;;5043932;28;20477;-38
2023/09/19 06:50:55;;;;;;;1.00;1.00;;;16.10;99.90;;;;;;5046007;28;20035;-39
2023/09/19 06:53:20;;;;;;;1.23;1.13;;;16.20;99.90;;;;;;5043891;28;20087;-40
2023/09/19 06:55:47;;;;;;;3.08;1.20;;;16.20;99.90;;;;;;5042263;28;20028;-39
2023/09/19 06:58:13;;;;;;;1.80;1.17;;;16.30;99.90;;;;;;5044442;28;20044;-38
2023/09/19 07:00:38;;;;;;;1.70;1.30;;;16.30;99.90;;;;;;5041212;28;20025;-39
2023/09/19 07:03:12;;;;;;;2.10;1.35;;;16.30;99.90;;;;;;5043946;28;20083;-39
2023/09/19 07:05:39;;;;;;;2.75;1.27;;;16.30;99.90;;;;;;5039780;28;20475;-38
2023/09/19 07:08:06;;;;;;;3.13;1.35;;;16.40;99.90;;;;;;5042031;28;20029;-41
2023/09/19 07:10:33;;;;;;;1.40;1.00;;;16.40;99.90;;;;;;5045751;28;20379;-40
2023/09/19 07:13:06;;;;;;;1.73;1.25;;;16.40;99.90;;;;;;5044310;28;20033;-39
2023/09/19 07:15:38;;;;;;;1.95;1.17;;;16.50;99.90;;;;;;5047008;28;20037;-32
2023/09/19 07:18:05;;;;;;;1.60;1.05;;;16.50;99.90;;;;;;5040560;28;20115;-33
2023/09/19 07:20:32;;;;;;;2.53;1.40;;;16.60;99.90;;;;;;5045641;28;20402;-34
2023/09/19 07:23:01;;;;;;;1.48;1.00;;;16.70;99.90;;;;;;5048121;28;20051;-35
2023/09/19 07:25:30;;;;;;;1.50;1.40;;;16.80;99.90;;;;;;5045507;28;20029;-32
2023/09/19 07:27:59;;;;;;;1.85;1.20;;;17.00;99.90;;;;;;5043652;28;20033;-37
2023/09/19 07:30:26;;;;;;;2.25;1.65;;;17.10;99.90;;;;;;5045097;28;20029;-32
2023/09/19 07:32:52;;;;;;;1.40;1.30;;;17.20;99.90;;;;;;5042507;28;20036;-32
2023/09/19 07:35:19;;;;;;;1.05;0.98;;;17.30;99.90;;;;;;5044185;28;20033;-32
2023/09/19 07:37:49;;;;;;;1.20;1.10;;;17.20;99.90;;;;;;5047633;28;20024;-34
2023/09/19 07:40:15;;;;;;;2.65;1.20;;;17.30;99.90;;;;;;5044284;28;20429;-32
2023/09/19 07:42:41;;;;;;;2.35;1.25;;;17.40;99.90;;;;;;5043397;28;20128;-33
2023/09/19 07:45:08;;;;;;;4.28;1.50;;;17.40;99.90;;;;;;5043006;28;20578;-37
2023/09/19 07:47:34;;;;;;;1.65;1.48;;;17.60;99.90;;;;;;5046096;28;20082;-33
2023/09/19 07:50:02;;;;;;;1.20;1.10;;;17.70;99.90;;;;;;5045721;28;20029;-32
2023/09/19 07:52:28;;;;;;;;;;;17.80;99.90;;;;;;5047742;28;20033;-35
2023/09/19 07:54:54;;;;;;;1.00;1.00;;;17.90;99.90;;;;;;5047093;28;19917;-33
2023/09/19 07:57:20;;;;;;;2.50;1.15;;;18.00;99.90;;;;;;5042683;28;20044;-33
2023/09/19 07:59:45;;;;;;;1.60;1.30;;;18.20;99.90;;;;;;5046141;28;20474;-33
2023/09/19 08:02:16;;;;;;;1.65;1.55;;;18.30;99.90;;;;;;5047468;28;20160;-35
2023/09/19 08:04:48;;;;;;;1.85;1.00;;;18.40;99.90;;;;;;5042852;28;20060;-32
2023/09/19 08:07:14;;;;;;;1.75;1.13;;;18.50;99.90;;;;;;5046876;28;20033;-33
2023/09/19 08:09:40;;;;;;;1.33;1.20;;;18.60;99.90;;;;;;5046047;28;20111;-34
2023/09/19 08:12:10;;;;;;;1.98;1.10;;;18.80;99.90;;;;;;5043963;28;20655;-32
2023/09/19 08:14:36;;;;;;;1.88;1.15;;;19.10;99.90;;;;;;5042397;28;20022;-34
2023/09/19 08:17:02;;;;;;;1.27;1.05;;;19.20;99.90;;;;;;5042018;28;20051;-32
2023/09/19 08:19:31;;;;;;;1.73;1.30;;;19.60;99.90;;;;;;5046314;28;21381;-32
2023/09/19 08:22:03;;;;;;;2.40;1.02;;;19.60;99.90;;;;;;5041681;28;20029;-38
2023/09/19 08:24:30;;;;;;;1.00;0.90;;;19.50;99.90;;;;;;5044460;28;20028;-40
2023/09/19 08:26:57;;;;;;;1.23;1.13;;;19.20;99.90;;;;;;5044692;28;20033;-35
2023/09/19 08:29:30;;;;;;;1.55;1.08;;;19.20;99.90;;;;;;5053041;28;20483;-40
2023/09/19 08:31:59;;;;;;;1.10;1.00;;;19.30;99.90;;;;;;5048791;28;20570;-38
2023/09/19 08:34:25;;;;;;;2.80;0.75;;;19.40;99.90;;;;;;5047873;28;20064;-39
2023/09/19 08:36:57;;;;;;;1.00;0.90;;;19.60;99.90;;;;;;5047338;28;20490;-39
2023/09/19 08:39:23;;;;;;;1.58;1.02;;;19.80;99.90;;;;;;5048659;28;20511;-40
2023/09/19 08:41:49;;;;;;;0.80;0.80;;;19.80;99.90;;;;;;5049721;28;20474;-35
2023/09/19 08:44:15;;;;;;;2.92;0.90;;;19.80;99.90;;;;;;5047491;28;20056;-32
2023/09/19 08:46:43;;;;;;;0.70;0.65;;;20.00;99.90;;;;;;5045448;28;20076;-32
2023/09/19 08:49:28;;;;;;;0.95;0.90;;;19.90;99.90;;;;;;5047519;28;20032;-33
2023/09/19 08:52:05;;;;;;;2.22;1.00;;;19.80;99.90;;;;;;5052858;28;20036;-35
2023/09/19 08:54:38;;;;;;;1.15;0.82;;;19.80;99.90;;;;;;5046074;28;20059;-38
2023/09/19 08:57:10;;;;;;;0.70;0.70;;;19.90;99.90;;;;;;5046799;28;20040;-32
2023/09/19 08:59:39;;;;;;;1.00;0.90;;;19.90;99.90;;;;;;5048746;28;20048;-33
2023/09/19 09:02:11;;;;;;;0.85;0.80;;;19.90;99.90;;;;;;5045214;28;20029;-31
2023/09/19 09:04:40;;;;;;;0.90;0.90;;;19.70;99.90;;;;;;5046590;28;20036;-33
2023/09/19 09:07:12;;;;;;;0.80;0.80;;;19.50;99.90;;;;;;5047647;28;20063;-35
2023/09/19 09:09:42;;;;;;;1.20;0.70;;;19.30;99.90;;;;;;5047712;28;20033;-32
2023/09/19 09:12:17;;;;;;;1.05;0.80;;;19.20;99.90;;;;;;5048953;28;20032;-37
2023/09/19 09:14:48;;;;;;;1.35;0.75;;;19.20;99.90;;;;;;5045018;28;20078;-32
2023/09/19 09:17:15;;;;;;;2.33;0.98;;;19.20;99.90;;;;;;5042441;28;20033;-34
2023/09/19 09:19:41;;;;;;;0.70;0.70;;;19.50;99.90;;;;;;5042105;28;20024;-35
2023/09/19 09:22:11;;;;;;;1.38;0.77;;;19.70;99.90;;;;;;5042584;28;20516;-35
2023/09/19 09:24:50;;;;;;;1.08;0.70;;;19.90;99.90;;;;;;5047395;28;20033;-33
2023/09/19 09:27:16;;;;;;;1.77;0.90;;;19.90;99.90;;;;;;5046515;28;20037;-34
2023/09/19 09:29:44;;;;;;;0.80;0.80;;;19.70;99.90;;;;;;5047521;28;20573;-31
2023/09/19 09:32:37;;;;;;;1.75;0.70;;;19.50;99.90;;;;;;5047118;28;20047;-34
2023/09/19 09:35:09;;;;;;;1.05;0.70;;;19.60;99.90;;;;;;5043533;28;20037;-41
2023/09/19 09:37:38;;;;;;;0.75;0.75;;;19.50;99.90;;;;;;5044730;28;20029;-38
2023/09/19 09:40:38;;;;;;;0.50;0.50;;;19.40;99.90;;;;;;5045316;28;20083;-42
2023/09/19 09:42:59;;;;;;;1.23;0.80;;;19.50;99.90;;;;;;5044595;28;20410;-38
2023/09/19 09:48:03;;;;;;;1.00;0.90;;;19.70;99.90;;;;;;5041297;28;19913;-41
2023/09/19 09:53:31;;;;;;;2.28;0.73;;;19.90;99.90;;;;;;5044029;28;20025;-40
2023/09/19 09:56:09;;;;;;;1.27;0.70;;;19.70;99.90;;;;;;5049183;28;20451;-31
2023/09/19 09:58:36;;;;;;;0.80;0.80;;;19.50;99.90;;;;;;5048297;28;20021;-32
2023/09/19 10:01:08;;;;;;;1.10;0.60;;;19.40;99.90;;;;;;5046643;28;20054;-30
2023/09/19 10:03:47;;;;;;;0.80;0.80;;;19.20;99.90;;;;;;5049090;28;20035;-30
2023/09/19 10:11:44;;;;;;;0.80;0.80;;;20.20;99.90;;;;;;5045052;28;20843;-30
2023/09/19 10:14:11;;;;;;;0.98;0.80;;;20.10;99.90;;;;;;5047077;28;20047;-30
2023/09/19 10:16:40;;;;;;;1.60;1.10;;;20.10;99.90;;;;;;5047607;28;20130;-30
2023/09/19 10:19:08;;;;;;;1.00;0.70;;;20.30;99.90;;;;;;5045461;28;20037;-32
2023/09/19 10:21:36;;;;;;;;;;;20.30;99.90;;;;;;5044924;28;20029;-30
2023/09/19 10:24:04;;;;;;;1.67;0.80;;;20.30;99.90;;;;;;5047921;28;19912;-31
2023/09/19 10:26:30;;;;;;;1.55;1.10;;;20.50;99.90;;;;;;5043503;28;20043;-29
2023/09/19 10:29:00;;;;;;;1.88;1.00;;;20.40;99.90;;;;;;5043969;28;20047;-31
2023/09/19 10:31:28;;;;;;;0.75;0.70;;;20.20;99.90;;;;;;5045369;28;20427;-30
2023/09/19 10:33:57;;;;;;;1.20;1.10;;;20.00;99.90;;;;;;5048588;28;20230;-31
2023/09/19 10:36:29;;;;;;;0.82;0.82;;;20.10;99.90;;;;;;5046398;28;20029;-30
2023/09/19 10:38:58;;;;;;;4.75;1.00;;;20.10;99.90;;;;;;5048432;28;20385;-31
2023/09/19 10:41:25;;;;;;;0.95;0.88;;;20.30;99.90;;;;;;5041294;28;20025;-30
2023/09/19 10:43:54;;;;;;;1.02;0.77;;;20.30;99.90;;;;;;5048880;28;20120;-38
2023/09/19 10:46:19;;;;;;;1.00;0.90;;;20.30;99.90;;;;;;5041835;28;20029;-39
2023/09/19 10:48:48;;;;;;;1.02;0.93;;;20.40;99.90;;;;;;5044622;28;20044;-39
2023/09/19 10:51:24;;;;;;;1.38;0.95;;;20.30;99.90;;;;;;5045315;28;20559;-37
2023/09/19 10:53:53;;;;;;;2.25;1.00;;;20.20;99.90;;;;;;5046275;28;20071;-39
2023/09/19 10:56:27;;;;;;;1.40;0.90;;;20.30;99.90;;;;;;5039200;28;20033;-39
2023/09/19 10:59:13;;;;;;;1.77;0.73;;;20.40;99.90;;;;;;5046135;28;20025;-39
2023/09/19 11:01:58;;;;;;;1.67;1.00;;;20.40;99.90;;;;;;5043678;28;20041;-39
2023/09/19 11:04:32;;;;;;;1.00;0.90;;;20.40;99.90;;;;;;5041121;28;20444;-31
2023/09/19 11:07:08;;;;;;;1.27;0.80;;;20.30;99.90;;;;;;5046571;28;20486;-33
2023/09/19 11:09:48;;;;;;;1.05;0.88;;;20.20;99.90;;;;;;5044048;28;20303;-32
2023/09/19 11:12:40;;;;;;;4.68;1.00;;;19.90;99.90;;;;;;5042327;28;20367;-33
2023/09/19 11:15:13;;;;;;;1.10;1.00;;;19.90;99.90;;;;;;5044557;28;20045;-33
2023/09/19 11:17:46;;;;;;;1.45;1.05;;;19.70;99.90;;;;;;5043542;28;20025;-35
2023/09/19 11:23:04;;;;;;;0.80;0.80;;;19.00;99.90;;;;;;5043968;28;20039;-33
2023/09/19 11:25:30;;;;;;;2.72;0.95;;;18.50;99.90;;;;;;5044439;28;20123;-32
2023/09/19 11:30:33;;;;;;;1.20;1.10;;;18.20;99.90;;;;;;5043094;28;20033;-33
2023/09/19 11:33:43;;;;;;;1.42;0.98;;;18.20;99.90;;;;;;5046155;28;20033;-32
2023/09/19 11:36:19;;;;;;;0.98;0.82;;;18.40;99.90;;;;;;5046099;28;20067;-33
2023/09/19 11:44:03;;;;;;;0.60;0.60;;;18.50;99.90;;;;;;5040451;28;20588;-32
2023/09/19 11:46:31;;;;;;;2.30;0.95;;;18.80;99.90;;;;;;5046012;28;20077;-34
2023/09/19 11:49:12;;;;;;;0.80;0.80;;;19.10;99.90;;;;;;5045858;28;20495;-36
2023/09/19 11:51:45;;;;;;;1.58;0.90;;;19.30;99.90;;;;;;5041499;28;20440;-32
2023/09/19 11:54:18;;;;;;;0.85;0.77;;;19.40;99.90;;;;;;5048115;28;20109;-37
2023/09/19 11:56:45;;;;;;;2.10;1.00;;;19.50;99.90;;;;;;5064588;28;20029;-39
2023/09/19 11:59:21;;;;;;;0.70;0.70;;;19.60;99.90;;;;;;5046627;28;20033;-35
2023/09/19 12:01:57;;;;;;;1.17;1.10;;;19.70;99.90;;;;;;5046963;28;20486;-37
2023/09/19 12:04:37;;;;;;;0.98;0.80;;;19.80;99.90;;;;;;5048108;28;20030;-41
2023/09/19 12:07:14;;;;;;;1.08;0.90;;;20.00;99.90;;;;;;5046171;28;20039;-39
2023/09/19 12:09:44;;;;;;;1.15;1.00;;;20.00;99.90;;;;;;5051044;28;20437;-40
2023/09/19 12:12:16;;;;;;;1.98;0.95;;;19.80;99.90;;;;;;5045750;28;20033;-38
2023/09/19 12:14:48;;;;;;;0.82;0.77;;;19.70;99.90;;;;;;5047621;28;20029;-30
2023/09/19 12:17:13;;;;;;;1.85;1.25;;;19.70;99.90;;;;;;5052989;28;20036;-32
2023/09/19 12:19:42;;;;;;;0.95;0.90;;;19.90;99.90;;;;;;5050490;28;20471;-30
2023/09/19 12:22:09;;;;;;;2.15;1.08;;;20.00;99.90;;;;;;5061994;28;20119;-36
2023/09/19 12:24:38;;;;;;;0.77;0.68;;;19.90;99.90;;;;;;5052408;28;20041;-33
2023/09/19 12:27:05;;;;;;;2.03;1.00;;;19.70;99.90;;;;;;5047243;28;20059;-30
2023/09/19 12:29:34;;;;;;;2.10;1.00;;;19.70;99.90;;;;;;5051258;28;20079;-30
2023/09/19 12:32:03;;;;;;;2.70;1.00;;;19.80;99.90;;;;;;5050352;28;20120;-30
2023/09/19 12:34:34;;;;;;;1.10;0.80;;;20.10;99.90;;;;;;5047853;28;20024;-30
2023/09/19 12:37:27;;;;;;;1.05;0.65;;;20.20;99.90;;;;;;5043438;28;20056;-31
2023/09/19 12:39:56;;;;;;;1.27;1.10;;;20.30;99.90;;;;;;5055738;28;20057;-30
2023/09/19 12:42:23;;;;;;;0.80;0.80;;;20.50;99.90;;;;;;5049722;28;20056;-29
2023/09/19 12:44:56;;;;;;;1.42;1.10;;;20.70;99.90;;;;;;5052328;28;20124;-31
2023/09/19 12:47:24;;;;;;;1.05;0.95;;;20.60;99.90;;;;;;5049342;28;20041;-30
2023/09/19 12:50:19;;;;;;;1.92;1.02;;;20.80;99.90;;;;;;5051461;28;20071;-30
2023/09/19 12:52:48;;;;;;;0.82;0.82;;;20.60;99.90;;;;;;5050362;28;20033;-31
2023/09/19 12:55:33;;;;;;;1.10;0.85;;;20.40;99.90;;;;;;5048475;28;20039;-31
2023/09/19 12:58:01;;;;;;;1.35;0.82;;;20.30;99.90;;;;;;5045726;28;20120;-30
2023/09/19 13:00:38;;;;;;;1.17;0.80;;;20.00;99.90;;;;;;5045708;28;20482;-33
2023/09/19 13:03:18;;;;;;;1.50;1.00;;;20.10;99.90;;;;;;5049661;28;20466;-29
2023/09/19 13:05:55;;;;;;;0.90;0.90;;;20.20;99.90;;;;;;5050482;28;20111;-36
2023/09/19 13:08:37;;;;;;;0.73;0.73;;;20.30;99.90;;;;;;5044316;28;20032;-39
2023/09/19 13:11:17;;;;;;;1.25;1.00;;;20.50;99.90;;;;;;5043754;28;20433;-36
2023/09/19 13:13:53;;;;;;;0.80;0.80;;;20.70;99.90;;;;;;5049543;28;20036;-38
2023/09/19 13:16:22;;;;;;;2.53;0.80;;;20.90;99.90;;;;;;5051878;28;20100;-39
2023/09/19 13:18:52;;;;;;;1.77;0.82;;;21.00;99.90;;;;;;5047492;28;20025;-40
2023/09/19 13:21:28;;;;;;;1.20;1.05;;;21.00;99.90;;;;;;5050074;28;20371;-39
2023/09/19 13:24:17;;;;;;;1.10;1.00;;;20.70;99.90;;;;;;5046671;28;20679;-39